createdAt,value
2022-10-31T00:01:20.081Z,16.81
2022-10-31T00:03:48.526Z,16.79
2022-10-31T00:06:19.006Z,16.73
2022-10-31T00:08:46.871Z,16.72
2022-10-31T00:11:14.704Z,16.68
2022-10-31T00:13:43.801Z,16.65
2022-10-31T00:16:18.068Z,16.63
2022-10-31T00:18:46.107Z,16.57
2022-10-31T00:21:13.756Z,16.59
2022-10-31T00:23:41.441Z,16.57
2022-10-31T00:26:09.299Z,16.50
2022-10-31T00:28:37.000Z,16.53
2022-10-31T00:31:07.899Z,16.53
2022-10-31T00:33:37.577Z,16.52
2022-10-31T00:36:06.165Z,16.49
2022-10-31T00:38:33.864Z,16.49
2022-10-31T00:41:01.561Z,16.49
2022-10-31T00:43:29.206Z,16.50
2022-10-31T00:45:56.880Z,16.49
2022-10-31T00:48:25.967Z,16.49
2022-10-31T00:50:53.591Z,16.46
2022-10-31T00:53:21.336Z,16.46
2022-10-31T00:55:49.049Z,16.43
2022-10-31T00:58:17.034Z,16.44
2022-10-31T01:00:48.068Z,16.41
2022-10-31T01:03:18.621Z,16.40
2022-10-31T01:05:47.679Z,16.35
2022-10-31T01:08:15.320Z,16.33
2022-10-31T01:10:42.929Z,16.35
2022-10-31T01:13:10.608Z,16.34
2022-10-31T01:15:38.283Z,16.31
2022-10-31T01:18:06.082Z,16.28
2022-10-31T01:20:33.760Z,16.22
2022-10-31T01:23:02.835Z,16.20
2022-10-31T01:25:30.503Z,16.16
2022-10-31T01:27:58.433Z,16.16
2022-10-31T01:30:26.442Z,16.12
2022-10-31T01:32:54.109Z,16.11
2022-10-31T01:35:21.741Z,16.09
2022-10-31T01:37:49.390Z,16.08
2022-10-31T01:40:18.573Z,16.03
2022-10-31T01:42:46.221Z,16.03
2022-10-31T01:45:16.000Z,16.00
2022-10-31T01:47:45.810Z,15.99
2022-10-31T01:50:17.946Z,15.95
2022-10-31T01:52:46.976Z,15.91
2022-10-31T01:55:20.185Z,15.87
2022-10-31T01:57:50.693Z,15.83
2022-10-31T02:00:18.967Z,15.80
2022-10-31T02:02:47.423Z,15.80
2022-10-31T02:05:18.850Z,15.77
2022-10-31T02:07:51.351Z,15.66
2022-10-31T02:10:21.427Z,15.70
2022-10-31T02:12:49.411Z,15.60
2022-10-31T02:15:17.209Z,15.66
2022-10-31T02:17:44.961Z,15.63
2022-10-31T02:20:17.375Z,15.62
2022-10-31T02:23:24.091Z,15.61
2022-10-31T02:26:20.570Z,15.60
2022-10-31T02:29:05.309Z,15.58
2022-10-31T02:31:37.389Z,15.55
2022-10-31T02:34:11.472Z,15.56
2022-10-31T02:36:44.602Z,15.53
2022-10-31T02:39:16.294Z,15.47
2022-10-31T02:41:49.338Z,15.47
2022-10-31T02:44:22.501Z,15.38
2022-10-31T02:46:54.474Z,15.37
2022-10-31T02:49:26.514Z,15.33
2022-10-31T02:51:54.494Z,15.35
2022-10-31T02:54:24.798Z,15.33
2022-10-31T02:56:54.842Z,15.33
2022-10-31T02:59:23.106Z,15.29
2022-10-31T03:02:23.111Z,15.26
2022-10-31T03:05:11.518Z,15.26
2022-10-31T03:07:44.714Z,15.26
2022-10-31T03:10:18.610Z,15.26
2022-10-31T03:12:52.217Z,15.28
2022-10-31T03:15:23.308Z,15.28
2022-10-31T03:17:59.635Z,15.27
2022-10-31T03:20:31.821Z,15.29
2022-10-31T03:23:00.352Z,15.29
2022-10-31T03:25:28.279Z,15.28
2022-10-31T03:27:56.584Z,15.26
2022-10-31T03:30:24.395Z,15.25
2022-10-31T03:32:55.695Z,15.17
2022-10-31T03:35:25.408Z,15.23
2022-10-31T03:37:54.447Z,15.21
2022-10-31T03:40:23.857Z,15.20
2022-10-31T03:42:55.106Z,15.17
2022-10-31T03:45:25.545Z,15.13
2022-10-31T03:47:55.185Z,15.13
2022-10-31T03:50:23.740Z,15.06
2022-10-31T03:52:57.187Z,15.02
2022-10-31T03:55:28.655Z,15.00
2022-10-31T03:58:01.593Z,15.00
2022-10-31T04:00:29.658Z,14.98
2022-10-31T04:03:02.620Z,14.94
2022-10-31T04:05:31.637Z,14.85
2022-10-31T04:08:00.869Z,14.90
2022-10-31T04:10:32.927Z,14.88
2022-10-31T04:13:05.235Z,14.87
2022-10-31T04:15:33.398Z,14.87
2022-10-31T04:18:03.565Z,14.86
2022-10-31T04:20:32.301Z,14.82
2022-10-31T04:22:59.964Z,14.80
2022-10-31T04:25:27.625Z,14.76
2022-10-31T04:27:55.494Z,14.70
2022-10-31T04:30:23.259Z,14.68
2022-10-31T04:32:50.903Z,14.67
2022-10-31T04:35:19.939Z,14.66
2022-10-31T04:37:47.643Z,14.61
2022-10-31T04:40:15.425Z,14.60
2022-10-31T04:42:43.035Z,14.55
2022-10-31T04:45:14.286Z,14.54
2022-10-31T04:47:44.523Z,14.51
2022-10-31T04:50:12.174Z,14.50
2022-10-31T04:52:42.554Z,14.50
2022-10-31T04:55:10.868Z,14.51
2022-10-31T04:57:42.701Z,14.48
2022-10-31T05:00:11.545Z,14.41
2022-10-31T05:02:45.402Z,14.39
2022-10-31T05:05:13.675Z,14.36
2022-10-31T05:07:44.056Z,14.37
2022-10-31T05:10:12.550Z,14.38
2022-10-31T05:12:40.572Z,14.33
2022-10-31T05:15:08.895Z,14.30
2022-10-31T05:17:36.563Z,14.28
2022-10-31T05:20:04.432Z,14.23
2022-10-31T05:22:32.032Z,14.25
2022-10-31T05:25:01.130Z,14.21
2022-10-31T05:27:28.748Z,14.21
2022-10-31T05:29:56.398Z,14.20
2022-10-31T05:32:24.174Z,14.15
2022-10-31T05:34:51.791Z,14.15
2022-10-31T05:37:19.429Z,14.11
2022-10-31T05:39:47.099Z,14.10
2022-10-31T05:42:16.137Z,14.03
2022-10-31T05:44:43.823Z,14.09
2022-10-31T05:47:11.562Z,14.09
2022-10-31T05:49:39.224Z,14.08
2022-10-31T05:52:06.903Z,13.69
2022-10-31T05:54:34.609Z,13.48
2022-10-31T05:57:02.285Z,13.30
2022-10-31T05:59:31.327Z,13.71
2022-10-31T06:01:59.016Z,13.73
2022-10-31T06:04:26.680Z,13.76
2022-10-31T06:06:54.382Z,13.76
2022-10-31T06:09:22.122Z,13.77
2022-10-31T06:11:49.768Z,13.81
2022-10-31T06:14:17.399Z,13.83
2022-10-31T06:16:46.479Z,13.83
2022-10-31T06:19:14.194Z,13.88
2022-10-31T06:21:41.810Z,13.90
2022-10-31T06:24:09.671Z,13.93
2022-10-31T06:26:37.317Z,13.96
2022-10-31T06:29:05.117Z,13.94
2022-10-31T06:31:32.795Z,13.93
2022-10-31T06:34:01.840Z,13.92
2022-10-31T06:36:29.534Z,13.91
2022-10-31T06:38:57.197Z,13.94
2022-10-31T06:41:24.874Z,13.96
2022-10-31T06:43:52.506Z,13.95
2022-10-31T06:46:20.286Z,13.86
2022-10-31T06:48:47.911Z,13.95
2022-10-31T06:51:16.956Z,13.97
2022-10-31T06:53:44.635Z,14.01
2022-10-31T06:56:12.271Z,14.01
2022-10-31T06:58:39.967Z,14.02
2022-10-31T07:01:08.027Z,14.02
2022-10-31T07:03:35.852Z,14.01
2022-10-31T07:06:03.513Z,14.00
2022-10-31T07:08:32.571Z,14.01
2022-10-31T07:11:00.287Z,14.02
2022-10-31T07:13:27.998Z,14.03
2022-10-31T07:16:00.917Z,14.08
2022-10-31T07:18:28.589Z,14.10
2022-10-31T07:20:56.599Z,14.11
2022-10-31T07:23:24.362Z,14.11
2022-10-31T07:25:58.080Z,14.14
2022-10-31T07:28:25.884Z,14.16
2022-10-31T07:30:54.858Z,14.18
2022-10-31T07:33:22.777Z,14.21
2022-10-31T07:35:50.530Z,14.23
2022-10-31T07:38:18.153Z,14.26
2022-10-31T07:40:45.846Z,14.28
2022-10-31T07:43:14.988Z,14.31
2022-10-31T07:45:42.869Z,14.33
2022-10-31T07:48:10.581Z,14.34
2022-10-31T07:50:38.334Z,14.37
2022-10-31T07:53:08.824Z,14.42
2022-10-31T07:55:37.079Z,14.45
2022-10-31T07:58:06.053Z,14.53
2022-10-31T08:00:36.372Z,14.57
2022-10-31T08:03:05.731Z,14.61
2022-10-31T08:05:33.893Z,14.66
2022-10-31T08:08:02.114Z,14.71
2022-10-31T08:10:30.249Z,14.75
2022-10-31T08:12:59.429Z,14.81
2022-10-31T08:15:27.647Z,14.85
2022-10-31T08:17:56.733Z,14.90
2022-10-31T08:20:24.501Z,14.93
2022-10-31T08:22:56.865Z,15.00
2022-10-31T08:25:24.798Z,15.04
2022-10-31T08:27:53.462Z,15.12
2022-10-31T08:30:21.614Z,15.18
2022-10-31T08:32:49.723Z,15.20
2022-10-31T08:35:18.903Z,15.29
2022-10-31T08:37:46.520Z,15.35
2022-10-31T08:40:14.260Z,15.40
2022-10-31T08:42:41.929Z,15.43
2022-10-31T08:45:10.256Z,15.46
2022-10-31T08:47:37.919Z,15.50
2022-10-31T08:50:06.131Z,15.53
2022-10-31T08:53:03.029Z,15.55
2022-10-31T08:55:23.058Z,15.61
2022-10-31T08:57:50.743Z,15.69
2022-10-31T09:00:18.678Z,15.76
2022-10-31T09:02:46.315Z,15.85
2022-10-31T09:05:14.067Z,15.92
2022-10-31T09:07:43.135Z,15.98
2022-10-31T09:10:10.989Z,16.05
2022-10-31T09:12:38.630Z,16.16
2022-10-31T09:15:07.455Z,16.23
2022-10-31T09:17:35.197Z,16.24
2022-10-31T09:20:02.846Z,16.28
2022-10-31T09:22:30.528Z,16.34
2022-10-31T09:24:59.578Z,16.42
2022-10-31T09:27:27.196Z,16.50
2022-10-31T09:29:54.878Z,16.56
2022-10-31T09:32:22.505Z,16.60
2022-10-31T09:34:50.106Z,16.65
2022-10-31T09:37:17.734Z,16.67
2022-10-31T09:39:45.398Z,16.67
2022-10-31T09:42:54.446Z,16.66
2022-10-31T09:45:28.661Z,16.71
2022-10-31T09:48:19.651Z,16.73
2022-10-31T09:50:49.993Z,16.84
2022-10-31T09:53:25.399Z,16.93
2022-10-31T09:55:53.457Z,17.06
2022-10-31T09:58:22.879Z,17.11
2022-10-31T10:00:51.995Z,17.27
2022-10-31T10:03:29.327Z,17.35
2022-10-31T10:06:03.576Z,17.38
2022-10-31T10:08:33.624Z,17.50
2022-10-31T10:11:10.909Z,17.54
2022-10-31T10:13:47.536Z,17.66
2022-10-31T10:16:24.630Z,17.70
2022-10-31T10:19:02.524Z,17.74
2022-10-31T10:21:39.641Z,17.77
2022-10-31T10:24:18.232Z,17.80
2022-10-31T10:26:52.073Z,17.82
2022-10-31T10:29:32.421Z,17.77
2022-10-31T10:32:04.047Z,17.73
2022-10-31T10:34:35.845Z,17.70
2022-10-31T10:37:06.512Z,17.65
2022-10-31T10:39:40.223Z,17.66
2022-10-31T10:42:29.495Z,17.66
2022-10-31T10:45:14.701Z,17.65
2022-10-31T10:47:44.975Z,17.65
2022-10-31T10:50:16.710Z,17.65
2022-10-31T10:52:51.047Z,17.61
2022-10-31T10:55:27.336Z,17.61
2022-10-31T10:57:59.022Z,17.60
2022-10-31T11:00:28.541Z,17.60
2022-10-31T11:02:57.856Z,17.62
2022-10-31T11:05:28.525Z,17.61
2022-10-31T11:07:56.224Z,17.57
2022-10-31T11:10:24.218Z,17.54
2022-10-31T11:13:05.387Z,17.48
2022-10-31T11:15:37.584Z,17.48
2022-10-31T11:18:07.241Z,17.45
2022-10-31T11:20:37.013Z,17.47
2022-10-31T11:23:16.365Z,17.48
2022-10-31T11:25:50.675Z,17.49
2022-10-31T11:28:18.390Z,17.50
2022-10-31T11:32:20.329Z,17.49
2022-10-31T11:34:51.519Z,17.48
2022-10-31T11:37:22.355Z,17.53
2022-10-31T11:39:54.425Z,17.56
2022-10-31T11:42:24.354Z,17.57
2022-10-31T11:46:17.327Z,17.55
2022-10-31T11:48:49.021Z,17.58
2022-10-31T11:51:22.836Z,17.57
2022-10-31T11:53:56.902Z,17.58
2022-10-31T11:56:28.282Z,17.60
2022-10-31T11:58:59.934Z,17.61
2022-10-31T12:01:30.294Z,17.63
2022-10-31T12:04:06.199Z,17.67
2022-10-31T12:06:36.049Z,17.63
2022-10-31T12:09:03.756Z,17.73
2022-10-31T12:11:44.569Z,17.73
2022-10-31T12:14:22.563Z,17.80
2022-10-31T12:16:55.878Z,17.84
2022-10-31T12:19:32.722Z,17.84
2022-10-31T12:22:18.050Z,17.82
2022-10-31T12:25:04.787Z,17.81
2022-10-31T12:27:40.128Z,17.82
2022-10-31T12:30:17.425Z,17.82
2022-10-31T12:33:06.043Z,17.83
2022-10-31T12:35:43.281Z,17.86
2022-10-31T12:38:38.579Z,17.92
2022-10-31T12:41:18.872Z,17.95
2022-10-31T12:43:49.456Z,18.01
2022-10-31T12:46:26.755Z,18.01
2022-10-31T12:49:08.070Z,18.06
2022-10-31T12:51:42.284Z,18.04
2022-10-31T12:54:54.425Z,18.05
2022-10-31T12:57:26.467Z,18.05
2022-10-31T12:59:56.984Z,18.02
2022-10-31T13:02:29.107Z,18.00
2022-10-31T13:04:59.856Z,18.00
2022-10-31T13:07:30.961Z,17.99
2022-10-31T13:10:02.355Z,17.93
2022-10-31T13:12:34.712Z,17.98
2022-10-31T13:15:07.334Z,17.99
2022-10-31T13:17:37.272Z,17.96
2022-10-31T13:20:19.898Z,18.02
2022-10-31T13:22:49.808Z,18.03
2022-10-31T13:25:19.498Z,18.01
2022-10-31T13:27:51.460Z,18.03
2022-10-31T13:30:21.120Z,18.01
2022-10-31T13:32:52.076Z,18.04
2022-10-31T13:35:27.544Z,18.04
2022-10-31T13:38:04.612Z,18.03
2022-10-31T13:40:37.818Z,18.00
2022-10-31T13:43:12.107Z,17.94
2022-10-31T13:45:50.088Z,17.95
2022-10-31T13:48:35.201Z,18.01
2022-10-31T13:51:07.208Z,18.00
2022-10-31T13:53:41.122Z,18.00
2022-10-31T13:56:21.120Z,17.97
2022-10-31T13:59:20.736Z,17.94
2022-10-31T14:01:50.852Z,17.93
2022-10-31T14:04:24.959Z,17.93
2022-10-31T14:07:00.163Z,17.88
2022-10-31T14:09:31.522Z,17.89
2022-10-31T14:12:01.740Z,17.87
2022-10-31T14:14:34.443Z,17.85
2022-10-31T14:17:02.604Z,17.87
2022-10-31T14:19:30.246Z,17.86
2022-10-31T14:21:59.285Z,17.88
2022-10-31T14:24:38.380Z,17.87
2022-10-31T14:27:37.154Z,17.85
2022-10-31T14:30:26.041Z,17.87
2022-10-31T14:32:55.724Z,17.88
2022-10-31T14:35:27.819Z,17.83
2022-10-31T14:38:06.872Z,17.83
2022-10-31T14:40:41.854Z,17.85
2022-10-31T14:43:33.225Z,17.86
2022-10-31T14:46:03.398Z,17.83
2022-10-31T14:48:55.750Z,17.88
2022-10-31T14:51:24.749Z,17.83
2022-10-31T14:53:55.499Z,17.83
2022-10-31T14:56:27.321Z,17.84
2022-10-31T14:58:56.338Z,17.85
2022-10-31T15:01:27.592Z,17.79
2022-10-31T15:04:21.967Z,17.86
2022-10-31T15:06:46.741Z,17.85
2022-10-31T15:09:27.228Z,17.83
2022-10-31T15:11:54.972Z,17.82
2022-10-31T15:14:25.989Z,17.81
2022-10-31T15:16:54.055Z,17.77
2022-10-31T15:19:25.531Z,17.76
2022-10-31T15:21:54.939Z,17.72
2022-10-31T15:24:22.805Z,17.78
2022-10-31T15:26:53.715Z,17.77
2022-10-31T15:29:23.607Z,17.76
2022-10-31T15:31:52.600Z,17.77
2022-10-31T15:34:23.738Z,17.77
2022-10-31T15:36:51.467Z,17.76
2022-10-31T15:39:19.612Z,17.76
2022-10-31T15:41:54.767Z,17.78
2022-10-31T15:44:25.619Z,17.74
2022-10-31T15:46:57.653Z,17.80
2022-10-31T15:49:35.401Z,17.81
2022-10-31T15:52:08.561Z,17.82
2022-10-31T15:54:37.100Z,17.80
2022-10-31T15:57:06.200Z,17.78
2022-10-31T15:59:33.947Z,17.77
2022-10-31T16:02:03.595Z,17.75
2022-10-31T16:04:31.639Z,17.73
2022-10-31T16:07:04.390Z,17.64
2022-10-31T16:09:31.994Z,17.74
2022-10-31T16:12:00.452Z,17.73
2022-10-31T16:14:31.482Z,17.73
2022-10-31T16:17:00.080Z,17.70
2022-10-31T16:19:30.321Z,17.65
2022-10-31T16:22:05.134Z,17.65
2022-10-31T16:24:34.031Z,17.65
2022-10-31T16:27:05.901Z,17.64
2022-10-31T16:35:49.248Z,17.65
2022-10-31T16:38:17.115Z,17.65
2022-10-31T16:40:45.432Z,17.66
2022-10-31T16:43:14.577Z,17.64
2022-10-31T16:45:44.994Z,17.63
2022-10-31T16:48:15.804Z,17.65
2022-10-31T16:50:43.676Z,17.66
2022-10-31T16:53:15.558Z,17.67
2022-10-31T16:55:47.208Z,17.68
2022-10-31T16:58:18.701Z,17.71
2022-10-31T17:00:46.514Z,17.71
2022-10-31T17:03:14.151Z,17.72
2022-10-31T17:05:42.002Z,17.71
2022-10-31T17:08:09.655Z,17.71
2022-10-31T17:10:39.021Z,17.70
2022-10-31T17:13:08.450Z,17.69
2022-10-31T17:15:41.053Z,17.70
2022-10-31T17:20:32.643Z,17.70
2022-10-31T17:23:00.944Z,17.72
2022-10-31T17:25:31.802Z,17.71
2022-10-31T17:27:59.975Z,17.71
2022-10-31T17:30:27.597Z,17.70
2022-10-31T17:32:55.564Z,17.70
2022-10-31T17:35:23.942Z,17.68
2022-10-31T17:37:53.026Z,17.67
2022-10-31T17:40:22.904Z,17.67
2022-10-31T17:42:51.439Z,17.66
2022-10-31T17:45:19.116Z,17.64
2022-10-31T17:47:48.070Z,17.64
2022-10-31T17:50:15.968Z,17.54
2022-10-31T17:52:43.681Z,17.64
2022-10-31T17:55:12.805Z,17.62
2022-10-31T17:57:40.800Z,17.63
2022-10-31T18:00:10.521Z,17.63
2022-10-31T18:02:38.335Z,17.61
2022-10-31T18:05:06.967Z,17.63
2022-10-31T18:07:34.982Z,17.63
2022-10-31T18:10:02.928Z,17.59
2022-10-31T18:12:32.377Z,17.59
2022-10-31T18:15:00.240Z,17.61
2022-10-31T18:17:27.879Z,17.61
2022-10-31T18:19:55.677Z,17.57
2022-10-31T18:22:23.375Z,17.64
2022-10-31T18:24:50.957Z,17.64
2022-10-31T18:27:18.561Z,17.64
2022-10-31T18:29:47.587Z,17.65
2022-10-31T18:32:15.219Z,17.63
2022-10-31T18:34:42.870Z,17.64
2022-10-31T18:37:10.567Z,17.62
2022-10-31T18:39:38.172Z,17.63
2022-10-31T18:42:05.890Z,17.63
2022-10-31T18:44:34.301Z,17.64
2022-10-31T18:47:03.359Z,17.65
2022-10-31T18:49:32.818Z,17.65
2022-10-31T18:52:00.798Z,17.63
2022-10-31T18:54:28.520Z,17.64
2022-10-31T18:56:56.685Z,17.64
2022-10-31T18:59:24.339Z,17.64
2022-10-31T19:01:52.078Z,17.65
2022-10-31T19:04:21.229Z,17.64
2022-10-31T19:06:48.959Z,17.63
2022-10-31T19:09:16.579Z,17.63
2022-10-31T19:11:44.199Z,17.61
2022-10-31T19:14:13.716Z,17.60
2022-10-31T19:16:41.728Z,17.58
2022-10-31T19:19:10.684Z,17.58
2022-10-31T19:21:39.705Z,17.55
2022-10-31T19:24:07.509Z,17.55
2022-10-31T19:26:35.370Z,17.55
2022-10-31T19:29:03.066Z,17.53
2022-10-31T19:31:30.807Z,17.53
2022-10-31T19:33:58.470Z,17.53
2022-10-31T19:36:26.751Z,17.53
2022-10-31T19:38:55.800Z,17.52
2022-10-31T19:41:26.238Z,17.50
2022-10-31T19:43:54.479Z,17.46
2022-10-31T19:46:47.851Z,17.48
2022-10-31T19:49:11.416Z,17.47
2022-10-31T19:51:39.082Z,17.48
2022-10-31T19:54:08.395Z,17.46
2022-10-31T19:56:36.029Z,17.44
2022-10-31T19:59:04.032Z,17.43
2022-10-31T20:01:31.737Z,17.42
2022-10-31T20:03:59.448Z,17.42
2022-10-31T20:06:28.831Z,17.42
2022-10-31T20:08:57.214Z,17.41
2022-10-31T20:11:27.704Z,17.41
2022-10-31T20:13:56.280Z,17.40
2022-10-31T20:16:24.383Z,17.42
2022-10-31T20:18:52.272Z,17.39
2022-10-31T20:21:22.200Z,17.38
2022-10-31T20:23:49.928Z,17.38
2022-10-31T20:26:20.676Z,17.37
2022-10-31T20:28:49.684Z,17.35
2022-10-31T20:31:19.388Z,17.26
2022-10-31T20:33:47.240Z,17.33
2022-10-31T20:36:14.971Z,17.33
2022-10-31T20:38:43.290Z,17.31
2022-10-31T20:41:11.915Z,17.30
2022-10-31T20:43:39.636Z,17.29
2022-10-31T20:46:11.590Z,17.30
2022-10-31T20:48:39.409Z,17.28
2022-10-31T20:51:08.804Z,17.27
2022-10-31T20:53:36.538Z,17.27
2022-10-31T20:56:07.469Z,17.26
2022-10-31T20:58:36.126Z,17.27
2022-10-31T21:01:04.285Z,17.26
2022-10-31T21:03:36.418Z,17.23
2022-10-31T21:06:06.745Z,17.22
2022-10-31T21:08:34.612Z,17.21
2022-10-31T21:11:05.943Z,17.11
2022-10-31T21:13:40.525Z,17.13
2022-10-31T21:16:10.760Z,17.15
2022-10-31T21:18:41.199Z,17.15
2022-10-31T21:21:09.676Z,17.14
2022-10-31T21:23:37.401Z,17.12
2022-10-31T21:26:08.342Z,17.11
2022-10-31T21:28:36.145Z,17.09
2022-10-31T21:31:07.673Z,17.05
2022-10-31T21:33:35.583Z,17.03
2022-10-31T21:36:05.775Z,17.00
2022-10-31T21:38:34.195Z,16.99
2022-10-31T21:41:02.328Z,16.96
2022-10-31T21:43:30.331Z,16.94
2022-10-31T21:46:03.514Z,16.89
2022-10-31T21:48:31.192Z,16.87
2022-10-31T21:50:58.834Z,16.88
2022-10-31T21:53:45.553Z,16.84
2022-10-31T21:56:13.214Z,16.83
2022-10-31T21:58:40.880Z,16.82
2022-10-31T22:01:08.724Z,16.78
2022-10-31T22:03:36.915Z,16.79
2022-10-31T22:06:04.834Z,16.77
2022-10-31T22:08:34.293Z,16.78
2022-10-31T22:11:03.007Z,16.71
2022-10-31T22:13:31.379Z,16.69
2022-10-31T22:16:01.628Z,16.75
2022-10-31T22:18:29.661Z,16.77
2022-10-31T22:21:02.314Z,16.79
2022-10-31T22:23:30.859Z,16.81
2022-10-31T22:26:03.585Z,16.82
2022-10-31T22:28:31.546Z,16.82
2022-10-31T22:30:59.498Z,16.82
2022-10-31T22:33:27.198Z,16.83
2022-10-31T22:35:54.900Z,16.83
2022-10-31T22:38:22.538Z,16.83
2022-10-31T22:40:50.225Z,16.83
2022-10-31T22:43:19.273Z,16.83
2022-10-31T22:45:54.911Z,16.84
2022-10-31T22:48:22.608Z,16.85
2022-10-31T22:50:50.235Z,16.86
2022-10-31T22:53:17.843Z,16.87
2022-10-31T22:55:45.668Z,16.88
2022-10-31T22:58:13.861Z,16.88
2022-10-31T23:00:43.093Z,16.88
2022-10-31T23:03:10.776Z,16.90
2022-10-31T23:05:38.423Z,16.89
2022-10-31T23:08:06.599Z,16.91
2022-10-31T23:10:35.733Z,16.90
2022-10-31T23:13:20.993Z,16.89
2022-10-31T23:15:49.991Z,16.90
2022-10-31T23:18:36.628Z,16.89
2022-10-31T23:21:06.485Z,16.90
2022-10-31T23:23:35.298Z,16.89
2022-10-31T23:26:20.671Z,16.88
2022-10-31T23:28:48.266Z,16.88
2022-10-31T23:31:17.512Z,16.86
2022-10-31T23:33:45.199Z,16.86
2022-10-31T23:36:12.850Z,16.86
2022-10-31T23:38:40.489Z,16.86
2022-10-31T23:41:08.118Z,16.88
2022-10-31T23:43:35.779Z,16.88
2022-10-31T23:46:03.421Z,16.89
2022-10-31T23:48:32.452Z,16.88
2022-10-31T23:51:00.077Z,16.91
2022-10-31T23:53:27.742Z,16.90
2022-10-31T23:55:55.879Z,16.90
2022-10-31T23:58:23.562Z,16.90
